createdAt,value
2023-02-12T00:02:02.826Z,101452
2023-02-12T00:04:08.437Z,101463.07
2023-02-12T00:06:17.449Z,101463.61
2023-02-12T00:08:23.152Z,101471.73
2023-02-12T00:10:32.565Z,101474.58
2023-02-12T00:12:38.481Z,101466.59
2023-02-12T00:14:43.976Z,101473.55
2023-02-12T00:16:49.890Z,101477.67
2023-02-12T00:18:59.462Z,101490.52
2023-02-12T00:21:05.106Z,101493.4
2023-02-12T00:23:10.486Z,101505.39
2023-02-12T00:25:16.290Z,101502.56
2023-02-12T00:27:23.005Z,101508.84
2023-02-12T00:29:45.374Z,101514.51
2023-02-12T00:31:50.766Z,101524.53
2023-02-12T00:33:56.162Z,101524.42
2023-02-12T00:36:01.710Z,101534.89
2023-02-12T00:38:08.221Z,101534.39
2023-02-12T00:40:14.574Z,101544.86
2023-02-12T00:42:20.198Z,101544.48
2023-02-12T00:44:29.308Z,101549.91
2023-02-12T00:46:36.318Z,101554.97
2023-02-12T00:48:41.647Z,101549.17
2023-02-12T00:50:47.054Z,101552.17
2023-02-12T00:52:52.266Z,101553.2
2023-02-12T00:54:57.459Z,101549.27
2023-02-12T00:57:02.734Z,101553.16
2023-02-12T00:59:08.353Z,101558
2023-02-12T01:01:13.746Z,101563.09
2023-02-12T01:03:19.312Z,101561.7
2023-02-12T01:05:25.186Z,101573.55
2023-02-12T01:07:30.785Z,101570.45
2023-02-12T01:09:37.566Z,101577.48
2023-02-12T01:11:42.516Z,101584.75
2023-02-12T01:13:47.817Z,101583.77
2023-02-12T01:15:53.733Z,101591.36
2023-02-12T01:18:05.106Z,101595.18
2023-02-12T01:20:12.296Z,101593.42
2023-02-12T01:22:17.932Z,101599.89
2023-02-12T01:24:23.033Z,101611.43
2023-02-12T01:26:28.696Z,101613.88
2023-02-12T01:28:34.232Z,101611.64
2023-02-12T01:30:40.677Z,101610.59
2023-02-12T01:32:46.242Z,101613.64
2023-02-12T01:35:17.864Z,101617.45
2023-02-12T01:37:22.977Z,101615.84
2023-02-12T01:39:49.660Z,101619.74
2023-02-12T01:41:54.758Z,101623.02
2023-02-12T01:44:01.010Z,101632.09
2023-02-12T01:46:06.113Z,101636.14
2023-02-12T01:48:16.758Z,101636.39
2023-02-12T01:50:22.152Z,101636.7
2023-02-12T01:52:27.578Z,101637.11
2023-02-12T01:54:32.716Z,101641.5
2023-02-12T01:56:38.056Z,101643.8
2023-02-12T01:58:43.485Z,101644.58
2023-02-12T02:00:48.928Z,101638.31
2023-02-12T02:02:54.137Z,101634.92
2023-02-12T02:05:02.916Z,101645.86
2023-02-12T02:07:08.355Z,101653.28
2023-02-12T02:09:17.339Z,101654.94
2023-02-12T02:11:23.650Z,101665.29
2023-02-12T02:13:49.538Z,101670.38
2023-02-12T02:15:56.178Z,101669.31
2023-02-12T02:18:02.435Z,101674.14
2023-02-12T02:20:07.719Z,101677.56
2023-02-12T02:22:12.860Z,101685.27
2023-02-12T02:24:18.207Z,101684.91
2023-02-12T02:26:23.431Z,101690.7
2023-02-12T02:28:28.991Z,101700.55
2023-02-12T02:30:35.407Z,101692.75
2023-02-12T02:32:40.751Z,101681.55
2023-02-12T02:34:48.199Z,101686.91
2023-02-12T02:37:02.085Z,101704.51
2023-02-12T02:39:08.401Z,101706.45
2023-02-12T02:41:13.533Z,101717.5
2023-02-12T02:43:18.829Z,101717.92
2023-02-12T02:45:24.689Z,101715.78
2023-02-12T02:47:29.961Z,101719
2023-02-12T02:49:34.947Z,101729.26
2023-02-12T02:51:40.396Z,101746.28
2023-02-12T02:53:47.746Z,101739.52
2023-02-12T02:55:53.512Z,101731.11
2023-02-12T02:58:00.476Z,101741.18
2023-02-12T03:00:05.665Z,101748.61
2023-02-12T03:02:11.035Z,101751.05
2023-02-12T03:04:16.352Z,101760.58
2023-02-12T03:06:21.636Z,101766.38
2023-02-12T03:08:27.933Z,101771.23
2023-02-12T03:10:32.961Z,101770.09
2023-02-12T03:12:39.119Z,101774.95
2023-02-12T03:14:44.489Z,101782.22
2023-02-12T03:16:49.964Z,101792.48
2023-02-12T03:18:55.549Z,101801.26
2023-02-12T03:21:01.209Z,101811.94
2023-02-12T03:23:06.682Z,101816.88
2023-02-12T03:25:12.902Z,101823.98
2023-02-12T03:27:18.812Z,101828.7
2023-02-12T03:29:24.421Z,101825.34
2023-02-12T03:31:31.755Z,101833.22
2023-02-12T03:33:37.464Z,101836.25
2023-02-12T03:35:43.121Z,101838.36
2023-02-12T03:37:48.421Z,101839.58
2023-02-12T03:39:53.770Z,101842.29
2023-02-12T03:41:59.929Z,101849.06
2023-02-12T03:44:08.308Z,101845.69
2023-02-12T03:46:14.649Z,101850.77
2023-02-12T03:48:34.767Z,101857.22
2023-02-12T03:50:41.056Z,101865.77
2023-02-12T03:52:46.364Z,101868.37
2023-02-12T03:54:51.907Z,101875.29
2023-02-12T03:56:57.038Z,101873.39
2023-02-12T03:59:03.304Z,101873.26
2023-02-12T04:01:10.042Z,101874.52
2023-02-12T04:03:16.646Z,101875.84
2023-02-12T04:05:21.851Z,101880.53
2023-02-12T04:07:27.119Z,101878.25
2023-02-12T04:09:32.932Z,101888.58
2023-02-12T04:11:38.385Z,101896.48
2023-02-12T04:13:45.958Z,101897.91
2023-02-12T04:15:51.945Z,101894.11
2023-02-12T04:17:58.776Z,101895.53
2023-02-12T04:20:04.576Z,101897.17
2023-02-12T04:22:10.111Z,101896.74
2023-02-12T04:24:17.668Z,101900.67
2023-02-12T04:26:23.021Z,101905.4
2023-02-12T04:28:32.222Z,101908.13
2023-02-12T04:30:37.938Z,101913.61
2023-02-12T04:32:43.589Z,101916.5
2023-02-12T04:34:48.887Z,101916.9
2023-02-12T04:36:54.320Z,101920.91
2023-02-12T04:39:05.050Z,101918.38
2023-02-12T04:41:14.079Z,101921.45
2023-02-12T04:43:19.425Z,101920.8
2023-02-12T04:45:24.724Z,101920.7
2023-02-12T04:47:31.070Z,101922.25
2023-02-12T04:49:38.233Z,101917.81
2023-02-12T04:51:43.539Z,101914.68
2023-02-12T04:53:49.991Z,101917.86
2023-02-12T04:55:59.383Z,101919.8
2023-02-12T04:58:04.611Z,101919.17
2023-02-12T05:00:11.054Z,101918.88
2023-02-12T05:02:16.340Z,101928.71
2023-02-12T05:04:21.530Z,101935.26
2023-02-12T05:06:26.880Z,101942.03
2023-02-12T05:08:32.021Z,101937.95
2023-02-12T05:10:37.310Z,101944.7
2023-02-12T05:12:42.794Z,101953.13
2023-02-12T05:14:49.198Z,101953.13
2023-02-12T05:16:56.083Z,101960.39
2023-02-12T05:19:01.345Z,101962.84
2023-02-12T05:21:06.777Z,101974.08
2023-02-12T05:23:12.110Z,101978.19
2023-02-12T05:25:17.591Z,101981.77
2023-02-12T05:27:25.996Z,101992.17
2023-02-12T05:29:31.325Z,101993.41
2023-02-12T05:31:37.332Z,101995.27
2023-02-12T05:33:43.153Z,102001.96
2023-02-12T05:35:48.345Z,102005.06
2023-02-12T05:37:53.661Z,102010.5
2023-02-12T05:39:58.948Z,102012.13
2023-02-12T05:42:04.293Z,102011.45
2023-02-12T05:44:09.574Z,102020.86
2023-02-12T05:46:14.951Z,102021.49
2023-02-12T05:48:20.863Z,102027.3
2023-02-12T05:50:26.004Z,102024.7
2023-02-12T05:52:31.438Z,102028.39
2023-02-12T05:54:36.762Z,102034.31
2023-02-12T05:56:42.089Z,102040.39
2023-02-12T05:58:47.385Z,102041.93
2023-02-12T06:00:52.612Z,102043.85
2023-02-12T06:02:58.837Z,102049.62
2023-02-12T06:05:04.127Z,102052.47
2023-02-12T06:07:13.152Z,102055.07
2023-02-12T06:09:18.578Z,102059.67
2023-02-12T06:11:27.003Z,102069.59
2023-02-12T06:13:35.954Z,102070.39
2023-02-12T06:15:41.172Z,102077.23
2023-02-12T06:17:46.531Z,102083.05
2023-02-12T06:19:51.701Z,102082.05
2023-02-12T06:21:57.018Z,102086.04
2023-02-12T06:24:04.581Z,102084.91
2023-02-12T06:26:10.146Z,102091.77
2023-02-12T06:28:15.404Z,102101.36
2023-02-12T06:30:20.928Z,102107.48
2023-02-12T06:32:26.113Z,102109.85
2023-02-12T06:34:31.369Z,102114.31
2023-02-12T06:36:36.749Z,102123.86
2023-02-12T06:38:42.017Z,102117.95
2023-02-12T06:40:47.169Z,102114.77
2023-02-12T06:42:52.640Z,102116.5
2023-02-12T06:44:57.805Z,102116.8
2023-02-12T06:47:03.185Z,102118.8
2023-02-12T06:49:08.558Z,102118.08
2023-02-12T06:51:14.350Z,102119.16
2023-02-12T06:53:20.152Z,102119.43
2023-02-12T06:55:25.570Z,102120.72
2023-02-12T06:57:30.764Z,102125.78
2023-02-12T06:59:35.978Z,102131.04
2023-02-12T07:01:42.180Z,102123.46
2023-02-12T07:03:48.760Z,102124.98
2023-02-12T07:05:54.732Z,102125.58
2023-02-12T07:08:01.030Z,102125.64
2023-02-12T07:10:09.409Z,102127.97
2023-02-12T07:12:15.614Z,102132.06
2023-02-12T07:14:21.091Z,102132.17
2023-02-12T07:16:26.658Z,102131.53
2023-02-12T07:18:32.039Z,102134.92
2023-02-12T07:20:37.616Z,102135.78
2023-02-12T07:22:42.625Z,102139.02
2023-02-12T07:24:47.926Z,102140.09
2023-02-12T07:26:53.222Z,102140.14
2023-02-12T07:29:02.089Z,102142.03
2023-02-12T07:31:07.513Z,102141.36
2023-02-12T07:33:13.623Z,102147.59
2023-02-12T07:35:18.732Z,102145.34
2023-02-12T07:37:24.006Z,102145.41
2023-02-12T07:39:29.437Z,102144.79
2023-02-12T07:41:34.830Z,102152.66
2023-02-12T07:43:39.853Z,102154.74
2023-02-12T07:45:45.333Z,102157.45
2023-02-12T07:47:50.681Z,102159.83
2023-02-12T07:49:55.890Z,102152.69
2023-02-12T07:52:01.101Z,102153.39
2023-02-12T07:54:06.344Z,102159.55
2023-02-12T07:56:14.873Z,102150.33
2023-02-12T07:58:20.300Z,102153.01
2023-02-12T08:00:27.763Z,102154.17
2023-02-12T08:02:38.334Z,102161.8
2023-02-12T08:04:48.084Z,102162.56
2023-02-12T08:06:53.727Z,102164.28
2023-02-12T08:09:00.560Z,102169.73
2023-02-12T08:11:12.591Z,102170.24
2023-02-12T08:13:19.275Z,102176.04
2023-02-12T08:15:30.253Z,102177.95
2023-02-12T08:17:36.129Z,102173.22
2023-02-12T08:19:47.354Z,102173.3
2023-02-12T08:21:57.468Z,102173.55
2023-02-12T08:24:08.753Z,102178.31
2023-02-12T08:26:15.785Z,102178.5
2023-02-12T08:28:25.249Z,102180.45
2023-02-12T08:30:31.795Z,102181.73
2023-02-12T08:32:38.340Z,102180.67
2023-02-12T08:34:47.751Z,102186.14
2023-02-12T08:36:56.114Z,102185.41
2023-02-12T08:39:09.899Z,102187.15
2023-02-12T08:41:21.604Z,102192.39
2023-02-12T08:46:44.827Z,102192.25
2023-02-12T08:48:50.489Z,102197.61
2023-02-12T08:50:56.058Z,102201.78
2023-02-12T08:53:05.062Z,102201.3
2023-02-12T08:55:11.327Z,102203.35
2023-02-12T08:57:17.763Z,102199.48
2023-02-12T08:59:23.259Z,102196.67
2023-02-12T09:01:28.644Z,102196.78
2023-02-12T09:03:37.281Z,102190.19
2023-02-12T09:05:42.864Z,102186.23
2023-02-12T09:07:49.292Z,102190.28
2023-02-12T09:09:58.746Z,102190.44
2023-02-12T09:12:04.694Z,102185.23
2023-02-12T09:14:10.223Z,102186.21
2023-02-12T09:16:15.912Z,102188.48
2023-02-12T09:18:21.216Z,102184.08
2023-02-12T09:20:28.113Z,102192.66
2023-02-12T09:22:33.903Z,102195.06
2023-02-12T09:24:39.261Z,102196.67
2023-02-12T09:26:46.637Z,102200.75
2023-02-12T09:28:52.099Z,102203.27
2023-02-12T09:30:59.670Z,102203.33
2023-02-12T09:33:05.284Z,102204.59
2023-02-12T09:35:10.671Z,102204.33
2023-02-12T09:37:18.668Z,102209.53
2023-02-12T09:39:25.384Z,102219.64
2023-02-12T09:41:30.956Z,102226.33
2023-02-12T09:43:36.657Z,102217.77
2023-02-12T09:45:43.538Z,102221.18
2023-02-12T09:47:49.613Z,102224.2
2023-02-12T09:49:55.123Z,102232.03
2023-02-12T09:52:01.461Z,102235.81
2023-02-12T09:54:10.479Z,102229.2
2023-02-12T09:56:17.901Z,102229.56
2023-02-12T09:58:24.352Z,102226.63
2023-02-12T10:00:29.817Z,102226.05
2023-02-12T10:02:36.309Z,102218.25
2023-02-12T10:05:02.100Z,102225.2
2023-02-12T10:07:08.043Z,102225.69
2023-02-12T10:09:13.159Z,102228.25
2023-02-12T10:11:18.476Z,102228.19
2023-02-12T10:13:24.015Z,102233.13
2023-02-12T10:15:29.507Z,102232.09
2023-02-12T10:17:35.114Z,102232.2
2023-02-12T10:19:40.802Z,102232.19
2023-02-12T10:21:46.255Z,102232.36
2023-02-12T10:23:52.445Z,102224.55
2023-02-12T10:25:59.414Z,102228.61
2023-02-12T10:28:06.214Z,102226.59
2023-02-12T10:30:12.065Z,102212.19
2023-02-12T10:32:18.048Z,102212.84
2023-02-12T10:34:28.402Z,102203.88
2023-02-12T10:36:35.181Z,102203.31
2023-02-12T10:38:40.419Z,102203.8
2023-02-12T10:40:46.900Z,102197.44
2023-02-12T10:42:53.509Z,102204.91
2023-02-12T10:45:00.423Z,102210.46
2023-02-12T10:47:06.287Z,102214.49
2023-02-12T10:49:12.245Z,102211.58
2023-02-12T10:51:18.672Z,102210.31
2023-02-12T10:53:25.693Z,102213.27
2023-02-12T10:55:32.337Z,102215.05
2023-02-12T10:57:42.202Z,102212.72
2023-02-12T10:59:49.067Z,102219.8
2023-02-12T11:01:57.166Z,102219.99
2023-02-12T11:04:05.804Z,102223.22
2023-02-12T11:06:14.228Z,102224.23
2023-02-12T11:08:21.275Z,102214.41
2023-02-12T11:10:28.221Z,102213.17
2023-02-12T11:12:36.324Z,102210.98
2023-02-12T11:14:43.469Z,102210.28
2023-02-12T11:16:50.872Z,102206.23
2023-02-12T11:19:00.858Z,102198.3
2023-02-12T11:21:06.830Z,102195.75
2023-02-12T11:23:13.807Z,102188.56
2023-02-12T11:25:21.255Z,102188.75
2023-02-12T11:27:28.447Z,102190.84
2023-02-12T11:29:34.674Z,102196.17
2023-02-12T11:31:43.221Z,102196.41
2023-02-12T11:33:51.076Z,102199.19
2023-02-12T11:35:57.190Z,102199.2
2023-02-12T11:38:04.467Z,102202.68
2023-02-12T11:40:11.111Z,102203.47
2023-02-12T11:42:18.179Z,102208.69
2023-02-12T11:44:25.906Z,102204.73
2023-02-12T11:46:31.860Z,102205.29
2023-02-12T11:48:40.887Z,102205.32
2023-02-12T11:50:47.946Z,102208.05
2023-02-12T11:53:00.399Z,102199.12
2023-02-12T11:55:07.403Z,102201.69
2023-02-12T11:57:14.432Z,102198.24
2023-02-12T11:59:21.218Z,102193.44
2023-02-12T12:01:27.955Z,102189.19
2023-02-12T12:03:39.344Z,102182.98
2023-02-12T12:05:46.408Z,102182.86
2023-02-12T12:07:53.596Z,102182.31
2023-02-12T12:10:00.846Z,102189.47
2023-02-12T12:12:06.709Z,102191.94
2023-02-12T12:14:15.954Z,102194.49
2023-02-12T12:16:23.478Z,102191.95
2023-02-12T12:18:33.724Z,102189.71
2023-02-12T12:20:42.261Z,102184.73
2023-02-12T12:22:52.275Z,102188.43
2023-02-12T12:24:58.992Z,102189.97
2023-02-12T12:27:06.396Z,102190.27
2023-02-12T12:29:14.312Z,102190.91
2023-02-12T12:31:20.962Z,102191.39
2023-02-12T12:33:27.655Z,102189.9
2023-02-12T12:35:35.412Z,102186.45
2023-02-12T12:37:41.666Z,102180.45
2023-02-12T12:39:48.255Z,102174.06
2023-02-12T12:42:00.181Z,102168.83
2023-02-12T12:44:07.990Z,102172.44
2023-02-12T12:46:15.776Z,102171.02
2023-02-12T12:48:23.886Z,102169.27
2023-02-12T12:50:31.722Z,102161.19
2023-02-12T12:52:39.501Z,102163.08
2023-02-12T12:54:48.159Z,102161.02
2023-02-12T12:56:59.350Z,102160.33
2023-02-12T12:59:06.152Z,102158.09
2023-02-12T13:01:13.404Z,102152.55
2023-02-12T13:03:30.192Z,102154.48
2023-02-12T13:05:37.290Z,102151.56
2023-02-12T13:07:45.388Z,102152.3
2023-02-12T13:09:52.747Z,102151.61
2023-02-12T13:12:05.760Z,102145.88
2023-02-12T13:14:12.636Z,102146.84
2023-02-12T13:16:25.464Z,102147.03
2023-02-12T13:18:33.433Z,102151.8
2023-02-12T13:20:48.338Z,102152.66
2023-02-12T13:22:57.367Z,102150.02
2023-02-12T13:25:05.269Z,102154.34
2023-02-12T13:27:12.845Z,102149.27
2023-02-12T13:29:19.268Z,102147.87
2023-02-12T13:31:35.654Z,102149.56
2023-02-12T13:33:43.558Z,102144.61
2023-02-12T13:35:52.090Z,102151.36
2023-02-12T13:38:01.767Z,102152.11
2023-02-12T13:40:08.986Z,102149.48
2023-02-12T13:42:16.362Z,102156.41
2023-02-12T13:44:25.769Z,102160.41
2023-02-12T13:46:34.873Z,102162.56
2023-02-12T13:48:41.641Z,102163.09
2023-02-12T13:50:51.095Z,102169.88
2023-02-12T13:53:06.294Z,102170.06
2023-02-12T13:55:15.197Z,102166.09
2023-02-12T13:57:23.970Z,102168.73
2023-02-12T13:59:34.612Z,102168.27
2023-02-12T14:01:42.278Z,102167.84
2023-02-12T14:03:52.398Z,102169.73
2023-02-12T14:05:59.919Z,102169.08
2023-02-12T14:08:08.065Z,102167.61
2023-02-12T14:10:23.052Z,102169.45
2023-02-12T14:12:31.639Z,102161.83
2023-02-12T14:14:37.463Z,102157.91
2023-02-12T14:16:45.482Z,102158.47
2023-02-12T14:18:56.423Z,102155.38
2023-02-12T14:21:04.397Z,102165.42
2023-02-12T14:23:12.074Z,102163.23
2023-02-12T14:25:20.012Z,102168.89
2023-02-12T14:27:28.763Z,102166.64
2023-02-12T14:29:40.337Z,102165.16
2023-02-12T14:31:49.629Z,102161.53
2023-02-12T14:33:57.809Z,102163.88
2023-02-12T14:36:06.001Z,102165.08
2023-02-12T14:38:14.533Z,102166.65
2023-02-12T14:40:22.688Z,102165.97
2023-02-12T14:42:33.016Z,102171.23
2023-02-12T14:44:42.740Z,102164.84
2023-02-12T14:46:53.320Z,102167.59
2023-02-12T14:49:01.994Z,102168.47
2023-02-12T14:51:10.505Z,102171.08
2023-02-12T14:53:20.618Z,102164.94
2023-02-12T14:55:30.317Z,102161.16
2023-02-12T14:57:38.130Z,102164.06
2023-02-12T14:59:46.633Z,102163.65
2023-02-12T15:01:55.027Z,102160.05
2023-02-12T15:04:03.275Z,102164.2
2023-02-12T15:06:10.957Z,102162.92
2023-02-12T15:08:19.584Z,102158.83
2023-02-12T15:10:27.760Z,102154.7
2023-02-12T15:12:35.096Z,102160.73
2023-02-12T15:14:43.779Z,102161.41
2023-02-12T15:16:51.318Z,102165.26
2023-02-12T15:19:00.236Z,102169.84
2023-02-12T15:21:07.884Z,102172.17
2023-02-12T15:23:16.336Z,102171.23
2023-02-12T15:25:26.476Z,102172.86
2023-02-12T15:27:34.916Z,102176.59
2023-02-12T15:29:43.188Z,102176.2
2023-02-12T15:31:52.141Z,102178.76
2023-02-12T15:34:00.735Z,102184
2023-02-12T15:36:08.345Z,102184.34
2023-02-12T15:38:17.602Z,102178.61
2023-02-12T15:40:26.433Z,102180.36
2023-02-12T15:42:36.202Z,102182.28
2023-02-12T15:44:44.528Z,102188.84
2023-02-12T15:46:54.400Z,102194.34
2023-02-12T15:49:04.375Z,102197.95
2023-02-12T15:51:12.390Z,102199.99
2023-02-12T15:53:19.761Z,102207.31
2023-02-12T15:55:30.185Z,102212.22
2023-02-12T15:57:37.804Z,102209.51
2023-02-12T15:59:47.552Z,102210
2023-02-12T16:01:56.426Z,102212.85
2023-02-12T16:04:03.960Z,102210.8
2023-02-12T16:06:13.663Z,102215.23
2023-02-12T16:08:21.797Z,102212
2023-02-12T16:10:29.333Z,102215.56
2023-02-12T16:12:38.377Z,102212.16
2023-02-12T16:14:47.900Z,102210.5
2023-02-12T16:16:58.303Z,102210.84
2023-02-12T16:19:05.155Z,102208.02
2023-02-12T16:21:17.871Z,102203.73
2023-02-12T16:23:28.341Z,102201.91
2023-02-12T16:25:36.347Z,102202.04
2023-02-12T16:27:44.331Z,102204.27
2023-02-12T16:29:54.077Z,102209.85
2023-02-12T16:32:05.695Z,102208.92
2023-02-12T16:34:23.972Z,102204.63
2023-02-12T16:36:34.063Z,102206.88
2023-02-12T16:38:41.687Z,102209.78
2023-02-12T16:40:50.213Z,102199.05
2023-02-12T16:42:58.478Z,102208.39
2023-02-12T16:45:06.757Z,102216.99
2023-02-12T16:47:17.122Z,102209.03
2023-02-12T16:49:26.165Z,102205.56
2023-02-12T16:51:38.610Z,102200.31
2023-02-12T16:53:47.014Z,102198.88
2023-02-12T16:55:56.291Z,102200.43
2023-02-12T16:58:06.421Z,102198.75
2023-02-12T17:00:17.386Z,102201.27
2023-02-12T17:02:24.990Z,102194.45
2023-02-12T17:04:32.661Z,102191.83
2023-02-12T17:06:40.052Z,102194.44
2023-02-12T17:08:51.152Z,102194.11
2023-02-12T17:11:00.884Z,102193.16
2023-02-12T17:13:17.209Z,102194.64
2023-02-12T17:15:25.551Z,102185.89
2023-02-12T17:17:34.841Z,102184.78
2023-02-12T17:19:47.709Z,102184.11
2023-02-12T17:21:55.595Z,102183.33
2023-02-12T17:24:03.814Z,102183.63
2023-02-12T17:26:12.993Z,102183.89
2023-02-12T17:28:22.854Z,102185.73
2023-02-12T17:30:34.257Z,102184.75
2023-02-12T17:32:41.339Z,102189.92
2023-02-12T17:34:51.416Z,102184.94
2023-02-12T17:37:06.387Z,102185.38
2023-02-12T17:39:14.265Z,102182.02
2023-02-12T17:41:22.906Z,102184.17
2023-02-12T17:43:31.293Z,102183.69
2023-02-12T17:45:41.773Z,102182.95
2023-02-12T17:47:52.144Z,102192.8
2023-02-12T17:50:03.394Z,102196.04
2023-02-12T17:52:12.214Z,102197.27
2023-02-12T17:54:24.040Z,102200.23
2023-02-12T17:56:36.918Z,102204.02
2023-02-12T17:58:46.344Z,102211.28
2023-02-12T18:00:56.915Z,102211.77
2023-02-12T18:03:10.751Z,102211.97
2023-02-12T18:05:25.042Z,102215
2023-02-12T18:07:36.533Z,102225.18
2023-02-12T18:09:45.517Z,102239.34
2023-02-12T18:12:01.977Z,102241.48
2023-02-12T18:14:10.830Z,102234.45
2023-02-12T18:16:21.139Z,102235.91
2023-02-12T18:18:30.746Z,102233.87
2023-02-12T18:20:45.929Z,102227.8
2023-02-12T18:22:54.228Z,102231.91
2023-02-12T18:25:02.653Z,102229.11
2023-02-12T18:27:20.030Z,102231.45
2023-02-12T18:29:32.838Z,102229.39
2023-02-12T18:31:44.911Z,102219.75
2023-02-12T18:33:55.272Z,102226.8
2023-02-12T18:36:09.350Z,102226.06
2023-02-12T18:38:21.602Z,102233.27
2023-02-12T18:40:31.122Z,102222.31
2023-02-12T18:42:41.429Z,102215.41
2023-02-12T18:44:56.628Z,102209.46
2023-02-12T18:47:09.880Z,102202.25
2023-02-12T18:49:19.782Z,102204.67
2023-02-12T18:51:27.366Z,102198.36
2023-02-12T18:53:39.510Z,102204.09
2023-02-12T18:55:48.561Z,102211.95
2023-02-12T18:58:05.985Z,102210.88
2023-02-12T19:00:17.314Z,102206.33
2023-02-12T19:02:31.402Z,102206.45
2023-02-12T19:04:40.831Z,102202.99
2023-02-12T19:06:53.357Z,102199.08
2023-02-12T19:09:10.754Z,102198.8
2023-02-12T19:11:23.731Z,102200.13
2023-02-12T19:13:33.970Z,102194.63
2023-02-12T19:15:45.438Z,102189.5
2023-02-12T19:18:02.178Z,102186.77
2023-02-12T19:20:12.373Z,102181.97
2023-02-12T19:22:29.470Z,102176.69
2023-02-12T19:24:49.486Z,102174.75
2023-02-12T19:26:58.332Z,102171.67
2023-02-12T19:29:09.555Z,102172.3
2023-02-12T19:31:20.442Z,102172.66
2023-02-12T19:33:31.709Z,102167.2
2023-02-12T19:35:43.012Z,102167.8
2023-02-12T19:37:58.328Z,102166.9
2023-02-12T19:40:10.044Z,102167.35
2023-02-12T19:42:19.506Z,102171.17
2023-02-12T19:44:29.863Z,102168.36
2023-02-12T19:46:48.932Z,102159.09
2023-02-12T19:49:02.840Z,102156.27
2023-02-12T19:51:20.747Z,102154.7
2023-02-12T19:53:31.419Z,102153.63
2023-02-12T19:55:44.369Z,102152.88
2023-02-12T19:57:55.869Z,102151.5
2023-02-12T20:00:04.584Z,102149.09
2023-02-12T20:02:15.213Z,102144.2
2023-02-12T20:04:27.942Z,102143.92
2023-02-12T20:06:37.116Z,102136.11
2023-02-12T20:08:46.039Z,102134.56
2023-02-12T20:10:58.241Z,102129.77
2023-02-12T20:13:05.974Z,102132.83
2023-02-12T20:15:19.823Z,102134.66
2023-02-12T20:17:41.710Z,102126.88
2023-02-12T20:19:57.790Z,102133.41
2023-02-12T20:22:12.956Z,102138.36
2023-02-12T20:24:25.268Z,102141.36
2023-02-12T20:26:34.452Z,102141.8
2023-02-12T20:28:44.956Z,102143.02
2023-02-12T20:31:07.066Z,102150.98
2023-02-12T20:33:34.348Z,102148.64
2023-02-12T20:35:51.537Z,102147.38
2023-02-12T20:38:02.832Z,102145.7
2023-02-12T20:40:14.937Z,102138.07
2023-02-12T20:42:33.952Z,102139.63
2023-02-12T20:44:46.124Z,102141.83
2023-02-12T20:47:02.317Z,102139.97
2023-02-12T20:49:12.491Z,102136.47
2023-02-12T20:51:24.948Z,102132.5
2023-02-12T20:53:37.636Z,102139.21
2023-02-12T20:55:48.524Z,102131.34
2023-02-12T20:57:56.742Z,102124.28
2023-02-12T21:00:09.159Z,102128.57
2023-02-12T21:02:20.011Z,102129.59
2023-02-12T21:04:30.562Z,102125.84
2023-02-12T21:06:40.649Z,102125.27
2023-02-12T21:08:49.433Z,102124.77
2023-02-12T21:10:56.840Z,102124.36
2023-02-12T21:13:05.075Z,102120.18
2023-02-12T21:15:13.658Z,102120.41
2023-02-12T21:17:24.126Z,102121.88
2023-02-12T21:19:32.611Z,102118.67
2023-02-12T21:21:43.528Z,102114.03
2023-02-12T21:23:55.912Z,102111.5
2023-02-12T21:26:05.458Z,102110.28
2023-02-12T21:28:14.868Z,102103.38
2023-02-12T21:30:22.957Z,102103.22
2023-02-12T21:32:31.681Z,102102.77
2023-02-12T21:34:49.074Z,102105.11
2023-02-12T21:36:57.309Z,102105.97
2023-02-12T21:39:03.138Z,102102.13
2023-02-12T21:41:09.452Z,102100.47
2023-02-12T21:43:15.164Z,102102.93
2023-02-12T21:45:24.104Z,102112.05
2023-02-12T21:47:30.704Z,102111.09
2023-02-12T21:49:38.148Z,102107.88
2023-02-12T21:51:49.848Z,102110.66
2023-02-12T21:53:55.972Z,102108.32
2023-02-12T21:56:03.199Z,102108.32
2023-02-12T21:58:10.387Z,102104.86
2023-02-12T22:00:16.986Z,102105.36
2023-02-12T22:02:23.392Z,102101.81
2023-02-12T22:04:30.135Z,102097.92
2023-02-12T22:06:35.643Z,102095.7
2023-02-12T22:08:40.840Z,102099.77
2023-02-12T22:10:46.398Z,102094.63
2023-02-12T22:12:52.087Z,102094.61
2023-02-12T22:14:57.449Z,102090.11
2023-02-12T22:17:02.794Z,102090.36
2023-02-12T22:19:08.185Z,102091.08
2023-02-12T22:21:15.034Z,102088.05
2023-02-12T22:23:20.637Z,102083.94
2023-02-12T22:25:25.913Z,102087.92
2023-02-12T22:27:31.539Z,102088.7
2023-02-12T22:29:36.964Z,102084.09
2023-02-12T22:31:44.405Z,102081.52
2023-02-12T22:33:50.754Z,102080.7
2023-02-12T22:35:56.104Z,102081.61
2023-02-12T22:38:01.542Z,102079.55
2023-02-12T22:40:07.079Z,102075.63
2023-02-12T22:42:12.755Z,102078.78
2023-02-12T22:44:21.350Z,102076.33
2023-02-12T22:46:27.336Z,102079.08
2023-02-12T22:48:32.858Z,102078.7
2023-02-12T22:50:39.393Z,102077.61
2023-02-12T22:52:44.757Z,102073.84
2023-02-12T22:54:50.281Z,102072.55
2023-02-12T22:56:55.905Z,102075.86
2023-02-12T22:59:01.698Z,102070.81
2023-02-12T23:01:07.241Z,102063.27
2023-02-12T23:03:12.890Z,102060.41
2023-02-12T23:05:18.054Z,102064.66
2023-02-12T23:07:23.444Z,102058.06
2023-02-12T23:09:28.748Z,102055.33
2023-02-12T23:11:34.161Z,102057.42
2023-02-12T23:13:39.605Z,102055.09
2023-02-12T23:15:45.124Z,102049.95
2023-02-12T23:17:51.413Z,102045.94
2023-02-12T23:19:56.794Z,102043.89
2023-02-12T23:22:02.349Z,102043
2023-02-12T23:24:07.750Z,102039.17
2023-02-12T23:26:12.803Z,102035.31
2023-02-12T23:28:18.349Z,102032.63
2023-02-12T23:30:23.890Z,102031.8
2023-02-12T23:32:29.444Z,102028.23
2023-02-12T23:34:34.693Z,102033.06
2023-02-12T23:36:40.256Z,102031.52
2023-02-12T23:38:45.710Z,102026.47
2023-02-12T23:40:50.793Z,102024.37
2023-02-12T23:42:55.965Z,102024.58
2023-02-12T23:45:01.185Z,102022
2023-02-12T23:47:06.566Z,102022.47
2023-02-12T23:49:11.737Z,102020.89
2023-02-12T23:51:17.173Z,102017.16
2023-02-12T23:53:22.526Z,102011.3
2023-02-12T23:55:28.131Z,102010.97
2023-02-12T23:57:33.340Z,102007.73
2023-02-12T23:59:38.942Z,102009.76
